createdAt,value
2023-03-22T00:00:32.022Z,3.33
2023-03-22T00:03:06.278Z,2.90
2023-03-22T00:05:40.170Z,2.50
2023-03-22T00:08:14.164Z,1.73
2023-03-22T00:10:48.571Z,2.67
2023-03-22T00:13:21.793Z,3.87
2023-03-22T00:15:55.895Z,2.80
2023-03-22T00:18:29.228Z,3.40
2023-03-22T00:21:02.414Z,2.40
2023-03-22T00:23:35.707Z,2.80
2023-03-22T00:26:10.020Z,2.80
2023-03-22T00:28:43.651Z,2.53
2023-03-22T00:31:16.835Z,2.07
2023-03-22T00:33:50.061Z,3.47
2023-03-22T00:36:23.250Z,2.67
2023-03-22T00:38:56.418Z,3.07
2023-03-22T00:41:29.609Z,2.70
2023-03-22T00:44:02.822Z,3.27
2023-03-22T00:46:36.136Z,2.80
2023-03-22T00:49:09.430Z,3.60
2023-03-22T00:51:42.615Z,2.70
2023-03-22T00:54:17.248Z,3.33
2023-03-22T00:56:50.403Z,3.20
2023-03-22T00:59:24.015Z,2.00
2023-03-22T01:01:58.913Z,3.40
2023-03-22T01:04:32.430Z,2.60
2023-03-22T01:07:07.711Z,2.17
2023-03-22T01:09:41.011Z,2.57
2023-03-22T01:12:14.229Z,1.93
2023-03-22T01:14:47.452Z,2.63
2023-03-22T01:17:20.773Z,2.27
2023-03-22T01:19:54.038Z,3.27
2023-03-22T01:22:27.547Z,3.00
2023-03-22T01:25:00.820Z,2.23
2023-03-22T01:27:34.042Z,2.60
2023-03-22T01:30:07.632Z,2.17
2023-03-22T01:32:41.435Z,2.00
2023-03-22T01:35:14.642Z,2.13
2023-03-22T01:37:47.818Z,2.50
2023-03-22T01:40:21.098Z,2.17
2023-03-22T01:42:55.023Z,2.60
2023-03-22T01:45:28.282Z,2.03
2023-03-22T01:48:04.566Z,2.20
2023-03-22T01:50:39.063Z,2.07
2023-03-22T01:53:13.690Z,2.13
2023-03-22T01:55:47.834Z,1.80
2023-03-22T01:58:21.241Z,2.80
2023-03-22T02:00:54.729Z,3.37
2023-03-22T02:03:33.054Z,1.83
2023-03-22T02:06:06.560Z,1.17
2023-03-22T02:08:40.821Z,2.37
2023-03-22T02:11:15.920Z,2.40
2023-03-22T02:14:03.654Z,1.80
2023-03-22T02:16:45.922Z,2.33
2023-03-22T02:19:42.476Z,2.10
2023-03-22T02:22:38.874Z,1.60
2023-03-22T02:25:12.084Z,2.30
2023-03-22T02:28:07.760Z,3.10
2023-03-22T02:30:50.363Z,1.63
2023-03-22T02:33:56.107Z,1.53
2023-03-22T02:36:36.251Z,1.83
2023-03-22T02:39:09.527Z,1.57
2023-03-22T02:41:47.245Z,1.90
2023-03-22T02:44:28.549Z,1.27
2023-03-22T02:47:05.645Z,2.53
2023-03-22T02:49:42.126Z,1.77
2023-03-22T02:52:39.212Z,1.93
2023-03-22T02:55:15.557Z,1.70
2023-03-22T02:58:03.929Z,3.10
2023-03-22T03:00:38.869Z,2.13
2023-03-22T03:03:13.376Z,2.23
2023-03-22T03:05:48.430Z,1.53
2023-03-22T03:08:23.697Z,2.80
2023-03-22T03:10:56.928Z,1.80
2023-03-22T03:13:30.393Z,2.73
2023-03-22T03:16:06.088Z,2.07
2023-03-22T03:18:48.517Z,2.10
2023-03-22T03:21:21.681Z,2.20
2023-03-22T03:24:07.498Z,1.67
2023-03-22T03:26:55.254Z,2.03
2023-03-22T03:29:39.944Z,2.10
2023-03-22T03:32:25.601Z,1.83
2023-03-22T03:35:03.549Z,1.67
2023-03-22T03:37:43.860Z,1.00
2023-03-22T03:40:19.187Z,1.30
2023-03-22T03:42:54.069Z,1.77
2023-03-22T03:45:27.352Z,2.27
2023-03-22T03:48:02.092Z,1.40
2023-03-22T03:50:35.355Z,1.57
2023-03-22T03:53:08.593Z,1.57
2023-03-22T03:55:41.882Z,2.80
2023-03-22T03:58:16.703Z,1.93
2023-03-22T04:00:50.585Z,1.90
2023-03-22T04:03:23.800Z,2.80
2023-03-22T04:05:57.016Z,1.77
2023-03-22T04:08:30.367Z,1.90
2023-03-22T04:11:03.580Z,2.93
2023-03-22T04:13:36.712Z,1.90
2023-03-22T04:16:10.156Z,1.73
2023-03-22T04:18:43.338Z,1.47
2023-03-22T04:21:16.656Z,2.27
2023-03-22T04:23:49.827Z,2.10
2023-03-22T04:26:25.014Z,1.37
2023-03-22T04:28:59.502Z,1.87
2023-03-22T04:31:34.090Z,0.93
2023-03-22T04:34:07.356Z,1.43
2023-03-22T04:36:40.995Z,2.03
2023-03-22T04:39:14.513Z,1.60
2023-03-22T04:41:47.694Z,2.47
2023-03-22T04:44:21.259Z,2.30
2023-03-22T04:46:54.432Z,3.70
2023-03-22T04:49:27.697Z,1.83
2023-03-22T04:52:00.897Z,2.03
2023-03-22T04:54:34.094Z,1.87
2023-03-22T04:57:07.306Z,2.83
2023-03-22T04:59:40.615Z,2.60
2023-03-22T05:02:13.809Z,2.10
2023-03-22T05:04:47.033Z,2.30
2023-03-22T05:07:20.473Z,2.27
2023-03-22T05:09:53.632Z,2.03
2023-03-22T05:12:27.029Z,2.50
2023-03-22T05:15:01.099Z,3.80
2023-03-22T05:17:34.608Z,2.10
2023-03-22T05:20:10.060Z,2.30
2023-03-22T05:22:45.251Z,2.57
2023-03-22T05:25:18.518Z,2.40
2023-03-22T05:27:54.212Z,2.13
2023-03-22T05:30:27.754Z,2.70
2023-03-22T05:33:03.354Z,2.00
2023-03-22T05:35:37.547Z,1.93
2023-03-22T05:38:11.154Z,3.07
2023-03-22T05:40:45.068Z,2.87
2023-03-22T05:43:18.515Z,2.60
2023-03-22T05:45:51.743Z,1.67
2023-03-22T05:48:24.972Z,2.50
2023-03-22T05:50:58.175Z,2.07
2023-03-22T05:53:33.003Z,2.60
2023-03-22T05:56:09.897Z,1.60
2023-03-22T05:58:43.348Z,3.13
2023-03-22T06:01:16.576Z,2.23
2023-03-22T06:03:50.297Z,3.40
2023-03-22T06:06:23.888Z,2.87
2023-03-22T06:09:07.242Z,2.60
2023-03-22T06:11:49.546Z,4.37
2023-03-22T06:14:22.754Z,2.93
2023-03-22T06:16:56.278Z,2.23
2023-03-22T06:19:29.534Z,2.00
2023-03-22T06:22:02.854Z,3.33
2023-03-22T06:24:36.311Z,2.40
2023-03-22T06:27:10.017Z,2.20
2023-03-22T06:29:43.231Z,2.50
2023-03-22T06:32:16.787Z,3.53
2023-03-22T06:34:50.605Z,3.47
2023-03-22T06:37:24.470Z,2.80
2023-03-22T06:39:57.750Z,1.87
2023-03-22T06:42:30.991Z,2.20
2023-03-22T06:45:04.848Z,2.50
2023-03-22T06:47:38.116Z,2.83
2023-03-22T06:50:11.496Z,3.23
2023-03-22T06:52:44.703Z,2.37
2023-03-22T06:55:17.890Z,2.97
2023-03-22T06:57:51.162Z,2.57
2023-03-22T07:00:24.362Z,3.60
2023-03-22T07:02:57.544Z,1.70
2023-03-22T07:05:31.519Z,2.10
2023-03-22T07:08:04.744Z,3.67
2023-03-22T07:10:38.512Z,2.70
2023-03-22T07:13:11.851Z,2.17
2023-03-22T07:15:45.164Z,2.60
2023-03-22T07:18:18.638Z,2.80
2023-03-22T07:20:52.287Z,2.50
2023-03-22T07:23:25.956Z,3.17
2023-03-22T07:26:00.902Z,2.27
2023-03-22T07:28:34.181Z,2.23
2023-03-22T07:31:09.957Z,3.57
2023-03-22T07:33:43.463Z,3.47
2023-03-22T07:36:16.830Z,1.73
2023-03-22T07:38:51.101Z,2.47
2023-03-22T07:41:25.385Z,2.60
2023-03-22T07:44:11.384Z,3.70
2023-03-22T07:46:51.754Z,4.10
2023-03-22T07:49:25.291Z,3.23
2023-03-22T07:51:58.558Z,3.63
2023-03-22T07:54:34.272Z,3.70
2023-03-22T07:57:08.534Z,2.43
2023-03-22T07:59:43.458Z,3.27
2023-03-22T08:02:16.697Z,3.30
2023-03-22T08:04:53.177Z,3.27
2023-03-22T08:07:27.686Z,3.70
2023-03-22T08:10:01.036Z,2.90
2023-03-22T08:12:34.247Z,2.07
2023-03-22T08:15:07.728Z,2.57
2023-03-22T08:17:41.049Z,1.90
2023-03-22T08:20:14.314Z,1.93
2023-03-22T08:22:47.513Z,2.20
2023-03-22T08:25:21.106Z,1.77
2023-03-22T08:27:54.422Z,2.63
2023-03-22T08:30:27.736Z,2.30
2023-03-22T08:33:01.043Z,1.93
2023-03-22T08:35:34.433Z,2.00
2023-03-22T08:38:07.709Z,1.30
2023-03-22T08:40:40.928Z,1.83
2023-03-22T08:43:14.189Z,1.40
2023-03-22T08:45:47.651Z,1.20
2023-03-22T08:48:21.050Z,1.50
2023-03-22T08:50:54.298Z,1.57
2023-03-22T08:53:27.514Z,1.77
2023-03-22T08:56:02.144Z,1.77
2023-03-22T08:58:36.236Z,1.20
2023-03-22T09:01:12.173Z,1.30
2023-03-22T09:03:45.467Z,1.20
2023-03-22T09:06:18.804Z,1.20
2023-03-22T09:08:52.239Z,1.57
2023-03-22T09:11:25.465Z,1.40
2023-03-22T09:13:58.642Z,0.97
2023-03-22T09:16:32.383Z,1.30
2023-03-22T09:19:06.601Z,1.40
2023-03-22T09:21:39.805Z,1.20
2023-03-22T09:24:12.988Z,1.20
2023-03-22T09:26:46.621Z,1.23
2023-03-22T09:29:20.509Z,1.17
2023-03-22T09:31:53.753Z,1.07
2023-03-22T09:34:28.055Z,1.73
2023-03-22T09:37:02.623Z,1.37
2023-03-22T09:39:38.428Z,1.23
2023-03-22T09:42:21.798Z,1.47
2023-03-22T09:44:56.027Z,1.20
2023-03-22T09:47:44.191Z,1.60
2023-03-22T09:50:26.253Z,1.20
2023-03-22T09:52:59.620Z,0.90
2023-03-22T09:55:46.366Z,1.17
2023-03-22T09:58:28.738Z,1.17
2023-03-22T10:01:24.919Z,1.20
2023-03-22T10:04:04.437Z,1.73
2023-03-22T10:06:37.688Z,1.00
2023-03-22T10:09:23.015Z,0.87
2023-03-22T10:12:08.074Z,1.20
2023-03-22T10:14:43.075Z,1.27
2023-03-22T10:17:18.191Z,1.23
2023-03-22T10:19:54.927Z,0.90
2023-03-22T10:22:30.554Z,1.10
2023-03-22T10:25:06.837Z,0.90
2023-03-22T10:27:40.299Z,2.60
2023-03-22T10:30:26.741Z,1.33
2023-03-22T10:32:59.940Z,1.20
2023-03-22T10:35:33.348Z,1.03
2023-03-22T10:38:07.935Z,0.87
2023-03-22T10:40:41.431Z,1.27
2023-03-22T10:43:27.931Z,1.10
2023-03-22T10:46:02.751Z,1.00
2023-03-22T10:48:37.508Z,0.80
2023-03-22T10:51:16.567Z,1.20
2023-03-22T10:53:51.183Z,0.97
2023-03-22T10:56:25.342Z,1.20
2023-03-22T10:58:58.745Z,1.07
2023-03-22T11:01:33.321Z,1.37
2023-03-22T11:04:09.250Z,1.03
2023-03-22T11:06:54.720Z,1.20
2023-03-22T11:09:29.180Z,1.30
2023-03-22T11:12:03.298Z,0.70
2023-03-22T11:14:37.741Z,1.00
2023-03-22T11:17:14.114Z,2.40
2023-03-22T11:19:53.474Z,0.73
2023-03-22T11:22:33.787Z,0.80
2023-03-22T11:25:08.370Z,1.30
2023-03-22T11:27:50.870Z,1.20
2023-03-22T11:30:27.749Z,1.10
2023-03-22T11:33:21.028Z,0.60
2023-03-22T11:35:55.957Z,0.80
2023-03-22T11:38:31.482Z,1.00
2023-03-22T11:41:09.257Z,0.70
2023-03-22T11:43:51.987Z,1.30
2023-03-22T11:46:26.199Z,0.90
2023-03-22T11:49:01.693Z,1.00
2023-03-22T11:51:36.569Z,1.10
2023-03-22T11:54:11.372Z,0.80
2023-03-22T11:56:46.737Z,1.30
2023-03-22T11:59:24.664Z,0.80
2023-03-22T12:02:01.094Z,0.97
2023-03-22T12:04:38.515Z,1.40
2023-03-22T12:07:15.443Z,1.10
2023-03-22T12:10:07.944Z,0.80
2023-03-22T12:12:44.831Z,1.10
2023-03-22T12:15:21.036Z,0.90
2023-03-22T12:17:54.328Z,0.97
2023-03-22T12:20:34.188Z,1.07
2023-03-22T12:23:14.632Z,0.77
2023-03-22T12:25:53.899Z,0.80
2023-03-22T12:28:47.406Z,1.30
2023-03-22T12:31:23.018Z,1.00
2023-03-22T12:33:57.299Z,0.93
2023-03-22T12:36:35.437Z,1.03
2023-03-22T12:39:10.373Z,1.50
2023-03-22T12:41:47.164Z,1.17
2023-03-22T12:44:29.306Z,1.10
2023-03-22T12:47:07.387Z,1.00
2023-03-22T12:49:49.990Z,0.90
2023-03-22T12:52:45.438Z,0.83
2023-03-22T12:55:32.898Z,1.20
2023-03-22T12:58:07.355Z,0.80
2023-03-22T13:00:46.142Z,0.90
2023-03-22T13:03:24.067Z,0.93
2023-03-22T13:06:02.370Z,1.00
2023-03-22T13:08:54.474Z,0.80
2023-03-22T13:11:27.726Z,0.77
2023-03-22T13:14:01.173Z,0.90
2023-03-22T13:17:04.012Z,1.10
2023-03-22T13:19:37.691Z,1.43
2023-03-22T13:22:18.698Z,0.80
2023-03-22T13:24:59.346Z,1.00
2023-03-22T13:27:51.448Z,1.47
2023-03-22T13:30:32.793Z,0.93
2023-03-22T13:33:09.708Z,0.83
2023-03-22T13:35:43.325Z,1.10
2023-03-22T13:38:22.918Z,1.03
2023-03-22T13:41:04.402Z,0.73
2023-03-22T13:43:40.617Z,0.90
2023-03-22T13:46:20.031Z,0.70
2023-03-22T13:48:55.293Z,1.10
2023-03-22T13:51:31.077Z,1.10
2023-03-22T13:54:11.438Z,0.90
2023-03-22T13:56:44.657Z,0.90
2023-03-22T13:59:26.914Z,1.10
2023-03-22T14:02:22.269Z,1.00
2023-03-22T14:04:57.905Z,0.73
2023-03-22T14:07:49.943Z,1.03
2023-03-22T14:10:25.824Z,1.00
2023-03-22T14:13:03.002Z,0.90
2023-03-22T14:15:38.883Z,0.97
2023-03-22T14:18:23.906Z,1.73
2023-03-22T14:21:17.352Z,0.93
